createdAt,value
2023-03-27T00:03:44.513Z,72.13
2023-03-27T00:09:11.737Z,72.33
2023-03-27T00:14:37.673Z,72.37
2023-03-27T00:20:03.371Z,72.55
2023-03-27T00:25:31.381Z,72.80
2023-03-27T00:30:57.792Z,72.99
2023-03-27T00:36:24.040Z,73.12
2023-03-27T00:41:49.703Z,73.24
2023-03-27T00:47:17.461Z,73.32
2023-03-27T00:52:43.831Z,73.54
2023-03-27T00:58:15.129Z,73.60
2023-03-27T01:03:42.861Z,73.77
2023-03-27T01:09:09.091Z,73.83
2023-03-27T01:14:47.441Z,73.96
2023-03-27T01:20:28.265Z,74.01
2023-03-27T01:26:11.423Z,74.35
2023-03-27T01:31:53.703Z,74.62
2023-03-27T01:37:48.498Z,74.87
2023-03-27T01:43:21.766Z,74.89
2023-03-27T01:48:46.209Z,74.95
2023-03-27T01:54:16.253Z,75.11
2023-03-27T01:59:45.662Z,75.26
2023-03-27T02:05:16.570Z,75.24
2023-03-27T02:10:47.999Z,75.38
2023-03-27T02:16:15.083Z,75.56
2023-03-27T02:21:41.255Z,75.61
2023-03-27T02:27:10.680Z,75.61
2023-03-27T02:32:54.668Z,75.57
2023-03-27T02:38:29.598Z,75.64
2023-03-27T02:44:03.163Z,75.43
2023-03-27T02:49:35.958Z,75.57
2023-03-27T02:55:08.949Z,75.77
2023-03-27T03:00:45.906Z,75.73
2023-03-27T03:06:11.767Z,75.22
2023-03-27T03:11:40.599Z,75.28
2023-03-27T03:17:06.817Z,75.08
2023-03-27T03:22:32.807Z,75.18
2023-03-27T03:28:04.290Z,74.79
2023-03-27T03:33:14.295Z,74.88
2023-03-27T03:38:43.059Z,74.92
2023-03-27T03:44:08.841Z,75.04
2023-03-27T03:49:34.521Z,75.24
2023-03-27T03:55:00.480Z,75.18
2023-03-27T04:00:34.606Z,75.25
2023-03-27T04:06:00.542Z,75.43
2023-03-27T04:11:20.712Z,75.69
2023-03-27T04:16:46.574Z,75.35
2023-03-27T04:22:12.406Z,75.43
2023-03-27T04:27:38.708Z,75.64
2023-03-27T04:33:06.493Z,75.98
2023-03-27T04:38:31.261Z,76.46
2023-03-27T04:43:56.977Z,76.71
2023-03-27T04:49:22.997Z,76.98
2023-03-27T04:54:48.781Z,77.13
2023-03-27T05:00:14.420Z,77.24
2023-03-27T05:05:40.403Z,77.23
2023-03-27T05:11:07.240Z,77.27
2023-03-27T05:16:33.476Z,77.34
2023-03-27T05:21:59.397Z,77.25
2023-03-27T05:27:25.408Z,77.31
2023-03-27T05:32:51.191Z,77.20
2023-03-27T05:38:18.080Z,77.06
2023-03-27T05:43:45.218Z,77.23
2023-03-27T05:49:11.093Z,77.16
2023-03-27T05:54:36.751Z,77.31
2023-03-27T05:59:55.194Z,77.29
2023-03-27T06:05:20.928Z,77.45
2023-03-27T06:10:49.160Z,77.20
2023-03-27T06:16:16.061Z,76.86
2023-03-27T06:21:32.166Z,75.97
2023-03-27T06:26:57.793Z,75.12
2023-03-27T06:32:24.614Z,74.44
2023-03-27T06:37:56.318Z,71.02
2023-03-27T06:43:23.378Z,71.43
2023-03-27T06:48:49.116Z,69.86
2023-03-27T06:54:14.969Z,70.31
2023-03-27T06:59:40.873Z,70.75
2023-03-27T07:05:07.055Z,70.80
2023-03-27T07:10:33.624Z,71.33
2023-03-27T07:15:59.405Z,71.12
2023-03-27T07:21:25.467Z,71.14
2023-03-27T07:26:51.125Z,70.46
2023-03-27T07:32:29.694Z,68.67
2023-03-27T07:37:54.016Z,68.27
2023-03-27T07:43:19.756Z,68.76
2023-03-27T07:48:35.465Z,68.62
2023-03-27T07:54:01.351Z,68.13
2023-03-27T07:59:28.046Z,67.76
2023-03-27T08:04:53.914Z,68.07
2023-03-27T08:10:20.074Z,67.20
2023-03-27T08:15:39.123Z,66.33
2023-03-27T08:21:04.784Z,65.72
2023-03-27T08:26:30.735Z,64.57
2023-03-27T08:31:56.442Z,64.92
2023-03-27T08:37:22.157Z,63.72
2023-03-27T08:42:57.140Z,64.77
2023-03-27T08:48:30.388Z,62.23
2023-03-27T08:54:05.383Z,61.65
2023-03-27T08:59:35.877Z,61.51
2023-03-27T09:05:08.220Z,62.10
2023-03-27T09:10:36.181Z,60.52
2023-03-27T09:16:00.025Z,60.08
2023-03-27T09:21:24.447Z,60.85
2023-03-27T09:27:06.353Z,60.94
2023-03-27T09:32:35.748Z,60.57
2023-03-27T09:37:54.647Z,60.42
2023-03-27T09:43:26.932Z,59.76
2023-03-27T09:48:50.361Z,59.43
2023-03-27T09:54:19.972Z,58.80
2023-03-27T09:59:44.146Z,58.29
2023-03-27T10:05:14.450Z,57.32
2023-03-27T10:10:41.569Z,58.48
2023-03-27T10:16:07.283Z,57.78
2023-03-27T10:21:39.808Z,56.59
2023-03-27T10:26:48.390Z,56.66
2023-03-27T10:32:16.220Z,56.31
2023-03-27T10:37:39.236Z,56.13
2023-03-27T10:43:07.192Z,54.38
2023-03-27T10:48:48.119Z,54.19
2023-03-27T10:54:17.619Z,54.66
2023-03-27T10:59:49.547Z,52.78
2023-03-27T11:05:19.839Z,52.69
2023-03-27T11:10:50.884Z,53.27
2023-03-27T11:16:25.986Z,53.70
2023-03-27T11:22:02.364Z,52.83
2023-03-27T11:27:35.346Z,51.86
2023-03-27T11:33:10.184Z,51.81
2023-03-27T11:38:41.237Z,53.13
2023-03-27T11:43:59.896Z,52.47
2023-03-27T11:49:32.697Z,51.97
2023-03-27T11:55:11.856Z,51.09
2023-03-27T12:00:47.990Z,50.55
2023-03-27T12:06:20.447Z,48.98
2023-03-27T12:11:42.374Z,48.84
2023-03-27T12:17:20.169Z,49.09
2023-03-27T12:22:57.176Z,50.06
2023-03-27T12:28:32.704Z,50.61
2023-03-27T12:34:09.076Z,47.66
2023-03-27T12:39:40.060Z,47.53
2023-03-27T12:45:38.703Z,46.27
2023-03-27T12:51:20.459Z,48.06
2023-03-27T12:56:58.071Z,47.69
2023-03-27T13:03:02.640Z,47.38
2023-03-27T13:08:51.256Z,49.27
2023-03-27T13:14:55.526Z,52.28
2023-03-27T13:20:30.754Z,53.86
2023-03-27T13:26:14.005Z,54.15
2023-03-27T13:32:10.843Z,54.91
2023-03-27T13:38:03.355Z,55.29
2023-03-27T13:43:47.282Z,55.37
2023-03-27T13:49:30.476Z,55.76
2023-03-27T13:55:16.673Z,56.21
2023-03-27T14:00:56.238Z,55.77
2023-03-27T14:06:46.197Z,55.85
2023-03-27T14:12:24.978Z,56.14
2023-03-27T14:18:03.958Z,55.75
2023-03-27T14:23:35.694Z,55.84
2023-03-27T14:29:01.087Z,55.21
2023-03-27T14:34:43.852Z,54.85
2023-03-27T14:40:13.797Z,54.08
2023-03-27T14:45:42.260Z,52.70
2023-03-27T14:51:01.891Z,51.91
2023-03-27T14:56:38.454Z,52.04
2023-03-27T15:02:04.233Z,52.39
2023-03-27T15:07:38.330Z,51.82
2023-03-27T15:13:06.329Z,52.05
2023-03-27T15:18:36.975Z,51.98
2023-03-27T15:24:11.738Z,52.49
2023-03-27T15:29:47.347Z,52.49
2023-03-27T15:35:16.470Z,52.11
2023-03-27T15:40:50.527Z,51.95
2023-03-27T15:46:35.643Z,52.53
2023-03-27T15:52:01.328Z,52.78
2023-03-27T15:57:35.419Z,53.12
2023-03-27T16:02:55.393Z,53.14
2023-03-27T16:08:22.110Z,53.21
2023-03-27T16:13:56.813Z,53.08
2023-03-27T16:19:30.622Z,53.13
2023-03-27T16:24:56.653Z,52.83
2023-03-27T16:30:24.352Z,53.49
2023-03-27T16:35:50.775Z,54.52
2023-03-27T16:41:06.410Z,54.79
2023-03-27T16:46:37.218Z,54.99
2023-03-27T16:52:03.270Z,55.54
2023-03-27T16:57:29.424Z,55.93
2023-03-27T17:02:55.359Z,56.25
2023-03-27T17:08:21.167Z,56.66
2023-03-27T17:13:46.789Z,56.91
2023-03-27T17:19:12.893Z,56.70
2023-03-27T17:24:49.303Z,56.95
2023-03-27T17:30:30.461Z,57.14
2023-03-27T17:36:03.514Z,57.30
2023-03-27T17:41:29.398Z,57.53
2023-03-27T17:46:55.147Z,57.82
2023-03-27T17:52:12.152Z,57.99
2023-03-27T17:57:28.210Z,58.34
2023-03-27T18:02:45.088Z,58.74
2023-03-27T18:08:10.900Z,59.21
2023-03-27T18:13:37.843Z,59.57
2023-03-27T18:19:03.544Z,60.17
2023-03-27T18:24:30.490Z,60.62
2023-03-27T18:29:56.874Z,61.13
2023-03-27T18:35:23.016Z,61.53
2023-03-27T18:40:48.770Z,61.95
2023-03-27T18:46:18.550Z,62.25
2023-03-27T18:51:44.740Z,62.58
2023-03-27T18:57:10.481Z,63.28
2023-03-27T19:02:29.512Z,63.89
2023-03-27T19:07:55.624Z,64.32
2023-03-27T19:13:21.266Z,64.92
2023-03-27T19:18:48.262Z,65.72
2023-03-27T19:24:13.933Z,66.16
2023-03-27T19:29:40.776Z,66.44
2023-03-27T19:35:06.540Z,66.80
2023-03-27T19:40:34.209Z,66.89
2023-03-27T19:46:14.377Z,67.10
2023-03-27T19:51:23.450Z,67.64
2023-03-27T19:56:49.292Z,67.80
2023-03-27T20:02:15.437Z,68.47
2023-03-27T20:07:41.232Z,69.05
2023-03-27T20:13:07.197Z,69.48
2023-03-27T20:18:33.048Z,69.86
2023-03-27T20:23:59.293Z,70.53
2023-03-27T20:29:25.002Z,70.86
2023-03-27T20:34:50.829Z,71.17
2023-03-27T20:40:16.492Z,71.51
2023-03-27T20:45:43.914Z,71.63
2023-03-27T20:51:11.832Z,71.93
2023-03-27T20:56:37.716Z,72.08
2023-03-27T21:02:05.787Z,72.44
2023-03-27T21:07:31.539Z,72.54
2023-03-27T21:12:57.211Z,72.40
2023-03-27T21:18:24.057Z,72.50
2023-03-27T21:23:49.704Z,72.57
2023-03-27T21:29:15.557Z,72.73
2023-03-27T21:34:41.300Z,72.78
2023-03-27T21:40:15.455Z,73.13
2023-03-27T21:45:41.273Z,73.50
2023-03-27T21:51:07.203Z,73.99
2023-03-27T21:56:35.184Z,74.20
2023-03-27T22:02:02.072Z,74.35
2023-03-27T22:07:49.397Z,74.77
2023-03-27T22:13:15.233Z,75.17
2023-03-27T22:18:20.617Z,75.54
2023-03-27T22:23:26.391Z,75.83
2023-03-27T22:28:31.770Z,75.94
2023-03-27T22:33:37.727Z,75.84
2023-03-27T22:38:43.315Z,75.96
2023-03-27T22:43:49.867Z,75.90
2023-03-27T22:48:58.578Z,75.75
2023-03-27T22:54:04.254Z,75.70
2023-03-27T22:59:09.538Z,75.56
2023-03-27T23:04:14.935Z,75.34
2023-03-27T23:09:20.241Z,75.21
2023-03-27T23:14:25.636Z,75.26
2023-03-27T23:19:31.354Z,75.53
2023-03-27T23:24:36.932Z,75.50
2023-03-27T23:29:42.202Z,75.52
2023-03-27T23:34:47.947Z,75.39
2023-03-27T23:39:53.227Z,75.37
2023-03-27T23:44:58.898Z,76.12
2023-03-27T23:50:04.683Z,76.46
2023-03-27T23:55:10.804Z,76.46
